Time;durP1;ratioP1;P1;durP2;ratioP2;P2;SDS_P1;SDS_P2;PMS_P1;PMS_P2;Temp;Humidity;BMP_temperature;BMP_pressure;BME280_temperature;BME280_humidity;BME280_pressure;Samples;Min_cycle;Max_cycle;Signal;HPM_P1;HPM_P2
2022/09/10 00:01:28;;;;;;;4.70;3.67;;;18.90;81.20;;;21.37;59.68;100923.59;5030748;28;20206;-58
2022/09/10 00:03:57;;;;;;;4.70;3.40;;;18.80;80.70;;;21.30;59.19;100928.28;5050789;28;20228;-60
2022/09/10 00:06:27;;;;;;;8.10;5.57;;;18.80;80.90;;;21.25;59.69;100927.41;5051144;28;20197;-60
2022/09/10 00:08:56;;;;;;;8.47;4.03;;;18.70;81.00;;;21.22;59.62;100926.00;5051024;28;20186;-59
2022/09/10 00:11:27;;;;;;;7.20;4.47;;;18.60;81.10;;;21.18;59.79;100927.53;5045671;28;20210;-59
2022/09/10 00:13:56;;;;;;;5.17;3.63;;;18.60;81.30;;;21.14;60.28;100917.53;5031266;28;20210;-61
2022/09/10 00:16:24;;;;;;;3.10;2.80;;;18.60;81.50;;;21.08;60.53;100924.69;5031309;28;20194;-58
2022/09/10 00:18:52;;;;;;;4.43;2.93;;;18.50;81.80;;;21.02;59.95;100920.22;5030024;28;20202;-57
2022/09/10 00:21:21;;;;;;;4.00;3.30;;;18.50;81.80;;;21.00;60.13;100927.69;5033890;28;20201;-58
2022/09/10 00:23:49;;;;;;;6.80;3.90;;;18.50;82.10;;;20.99;60.63;100930.63;5045473;28;20245;-57
2022/09/10 00:26:20;;;;;;;5.77;4.50;;;18.40;82.20;;;20.97;60.66;100936.19;5030583;28;20734;-61
2022/09/10 00:28:49;;;;;;;6.13;3.67;;;18.40;82.30;;;20.98;60.32;100935.16;5030380;28;20265;-59
2022/09/10 00:31:21;;;;;;;5.23;3.87;;;18.40;82.50;;;20.95;60.26;100940.97;5033071;28;20186;-58
2022/09/10 00:33:53;;;;;;;6.80;3.23;;;18.40;82.70;;;20.91;60.86;100931.78;5031723;28;20210;-59
2022/09/10 00:36:25;;;;;;;4.93;3.30;;;18.30;82.50;;;20.88;60.73;100929.59;5033822;28;20263;-57
2022/09/10 00:38:56;;;;;;;7.30;4.50;;;18.30;82.80;;;20.83;60.91;100932.97;5034574;28;20203;-58
2022/09/10 00:41:25;;;;;;;4.03;3.07;;;18.30;83.00;;;20.83;60.81;100932.16;5037797;28;20723;-59
2022/09/10 00:43:56;;;;;;;6.63;3.20;;;18.30;83.10;;;20.87;61.40;100926.09;5035604;28;20198;-62
2022/09/10 00:46:42;;;;;;;3.27;2.20;;;18.30;83.40;;;20.92;61.35;100926.19;5034613;28;20198;-59
2022/09/10 00:49:16;;;;;;;5.17;2.17;;;18.30;83.80;;;21.05;60.89;100925.16;5034517;28;20179;-56
2022/09/10 00:51:47;;;;;;;2.77;2.50;;;18.30;83.90;;;21.17;61.06;100927.78;5039556;28;20919;-59
2022/09/10 00:54:17;;;;;;;5.90;3.77;;;18.40;83.90;;;21.22;60.92;100926.00;5034171;28;20217;-55
2022/09/10 00:56:45;;;;;;;5.47;3.60;;;18.50;83.30;;;21.21;60.13;100923.56;5034147;28;20235;-58
2022/09/10 00:59:17;;;;;;;8.30;3.67;;;18.50;82.70;;;21.13;60.66;100926.63;5034024;28;20244;-57
2022/09/10 01:01:46;;;;;;;5.20;2.70;;;18.50;82.70;;;21.06;60.30;100918.72;5038723;28;20236;-57
2022/09/10 01:04:14;;;;;;;4.23;2.60;;;18.50;82.60;;;21.04;60.46;100930.72;5034019;28;20202;-56
2022/09/10 01:06:45;;;;;;;2.97;2.27;;;18.40;82.70;;;21.02;60.71;100922.91;5016653;28;20249;-58
2022/09/10 01:09:13;;;;;;;2.10;1.90;;;18.40;83.00;;;21.06;61.46;100921.41;5033838;28;20190;-55
2022/09/10 01:12:11;;;;;;;5.13;3.40;;;18.40;83.80;;;21.06;61.03;100926.75;5033949;28;20740;-55
2022/09/10 01:15:06;;;;;;;6.10;2.47;;;18.50;83.50;;;21.08;60.58;100922.00;5033796;28;20218;-55
2022/09/10 01:17:57;;;;;;;2.87;2.07;;;18.50;83.50;;;21.15;61.23;100930.69;5033877;28;20183;-54
2022/09/10 01:20:55;;;;;;;2.67;1.97;;;18.50;83.90;;;21.21;60.81;100935.09;5033698;28;20253;-60
2022/09/10 01:24:12;;;;;;;4.20;2.63;;;18.60;83.80;;;21.28;60.59;100930.41;5038900;28;20214;-60
2022/09/10 01:27:34;;;;;;;2.83;2.27;;;18.70;83.50;;;21.32;60.82;100934.22;5033583;28;20191;-60
2022/09/10 01:30:11;;;;;;;3.70;2.97;;;18.70;83.30;;;21.42;60.43;100929.03;5033577;28;20596;-60
2022/09/10 01:32:56;;;;;;;4.73;3.03;;;18.70;82.70;;;21.40;59.73;100928.47;5038119;28;20627;-59
2022/09/10 01:35:36;;;;;;;3.83;3.20;;;18.80;82.40;;;21.40;59.91;100933.84;5033252;28;20183;-59
2022/09/10 01:38:16;;;;;;;8.83;3.53;;;18.80;82.20;;;21.37;59.99;100939.66;5033640;28;20220;-58
2022/09/10 01:40:45;;;;;;;3.40;3.10;;;18.70;81.90;;;21.32;59.58;100931.53;5033169;28;20167;-54
2022/09/10 01:43:14;;;;;;;2.60;2.40;;;18.70;81.90;;;21.34;60.28;100944.69;5038808;28;20222;-57
2022/09/10 01:46:00;;;;;;;3.83;2.70;;;18.70;82.70;;;21.31;59.80;100943.31;5033281;28;20199;-56
2022/09/10 01:48:59;;;;;;;2.60;2.40;;;18.70;82.50;;;21.28;60.51;100935.75;5033234;28;20175;-59
2022/09/10 01:51:46;;;;;;;3.83;2.90;;;18.70;82.50;;;21.30;60.14;100939.00;5035617;28;20551;-57
2022/09/10 01:54:36;;;;;;;3.10;2.80;;;18.70;82.40;;;21.25;60.16;100936.22;5033396;28;20691;-60
2022/09/10 01:57:22;;;;;;;3.77;2.77;;;18.70;82.20;;;21.23;60.33;100932.97;5033527;28;20202;-60
2022/09/10 02:00:04;;;;;;;3.47;3.17;;;18.60;82.20;;;21.20;60.50;100941.50;5033257;28;20202;-59
2022/09/10 02:02:40;;;;;;;6.07;3.50;;;18.60;82.30;;;21.11;60.43;100937.56;5038631;28;20229;-60
2022/09/10 02:05:10;;;;;;;3.93;3.17;;;18.60;82.50;;;21.03;60.35;100937.94;5053207;28;20189;-59
2022/09/10 02:07:38;;;;;;;4.90;2.90;;;18.50;82.50;;;20.97;61.17;100933.50;5053090;28;20705;-56
2022/09/10 02:10:08;;;;;;;3.63;3.13;;;18.50;82.70;;;20.93;60.78;100937.72;5052915;28;20190;-59
2022/09/10 02:12:36;;;;;;;6.50;3.63;;;18.40;82.90;;;20.90;60.95;100940.88;5046530;28;20578;-58
2022/09/10 02:15:09;;;;;;;2.90;2.70;;;18.30;83.00;;;20.89;61.21;100937.38;5052919;28;20682;-59
2022/09/10 02:17:39;;;;;;;3.90;2.67;;;18.30;83.20;;;20.91;61.38;100943.31;5055151;28;20248;-60
2022/09/10 02:20:13;;;;;;;4.90;3.83;;;18.30;83.40;;;20.96;61.16;100939.94;5053976;28;20190;-58
2022/09/10 02:22:48;;;;;;;3.77;3.47;;;18.30;83.70;;;20.98;61.37;100934.31;5047463;28;20221;-58
2022/09/10 02:25:16;;;;;;;5.73;3.40;;;18.30;83.60;;;21.02;61.34;100930.94;5052434;28;20185;-58
2022/09/10 02:27:44;;;;;;;4.37;3.13;;;18.30;83.60;;;21.04;61.09;100933.41;5053495;28;20197;-58
2022/09/10 02:30:13;;;;;;;4.23;3.10;;;18.30;84.40;;;21.05;61.18;100935.03;5036170;28;20198;-57
2022/09/10 02:32:41;;;;;;;5.17;3.70;;;18.40;83.70;;;21.05;60.73;100935.84;5038181;28;20264;-57
2022/09/10 02:35:09;;;;;;;6.00;3.93;;;18.40;83.70;;;21.03;61.16;100942.47;5050989;28;20213;-59
2022/09/10 02:37:36;;;;;;;4.50;4.10;;;18.40;83.70;;;21.01;61.24;100942.72;5052419;28;20243;-58
2022/09/10 02:40:05;;;;;;;4.80;3.47;;;18.40;83.70;;;21.04;60.80;100941.44;5035803;28;20195;-58
2022/09/10 02:42:54;;;;;;;3.87;3.30;;;18.30;83.70;;;21.04;61.19;100939.53;5018128;28;20230;-58
2022/09/10 02:45:23;;;;;;;4.90;3.73;;;18.30;83.70;;;21.04;61.37;100942.22;5029803;28;20496;-61
2022/09/10 02:47:50;;;;;;;5.00;3.63;;;18.40;83.80;;;21.04;61.40;100944.88;5029721;28;20714;-60
2022/09/10 02:50:18;;;;;;;3.17;2.87;;;18.40;83.90;;;21.04;61.06;100944.88;5029616;28;20263;-56
2022/09/10 02:52:45;;;;;;;4.13;2.90;;;18.40;83.80;;;21.06;61.49;100944.69;5029212;28;20695;-59
2022/09/10 02:55:13;;;;;;;3.97;3.47;;;18.40;83.90;;;21.11;60.83;100936.78;5033309;28;20250;-59
2022/09/10 02:57:41;;;;;;;3.87;2.93;;;18.40;84.10;;;21.17;61.08;100943.84;5030320;28;20275;-58
2022/09/10 03:00:10;;;;;;;3.70;3.30;;;18.40;84.10;;;21.22;61.28;100941.25;5029509;28;20225;-58
2022/09/10 03:02:39;;;;;;;6.37;2.97;;;18.40;85.20;;;21.28;60.92;100943.78;5009444;28;20325;-59
2022/09/10 03:05:07;;;;;;;3.23;2.87;;;18.50;84.20;;;21.30;60.58;100949.72;5010216;28;20254;-58
2022/09/10 03:07:34;;;;;;;5.83;3.60;;;18.50;84.00;;;21.33;60.67;100946.56;5009816;28;20207;-59
2022/09/10 03:10:02;;;;;;;5.10;3.60;;;18.60;84.10;;;21.35;60.29;100947.13;5024020;28;20348;-58
2022/09/10 03:12:30;;;;;;;2.97;2.77;;;18.60;83.70;;;21.37;60.25;100939.66;5028739;28;20292;-58
2022/09/10 03:14:57;;;;;;;5.50;3.73;;;18.60;83.60;;;21.40;60.48;100939.19;5029542;28;20585;-59
2022/09/10 03:17:25;;;;;;;4.83;3.03;;;18.60;83.40;;;21.42;60.07;100942.44;5029443;28;20194;-58
2022/09/10 03:19:53;;;;;;;4.70;4.20;;;18.70;83.50;;;21.44;60.01;100950.25;5029923;28;20257;-60
2022/09/10 03:22:21;;;;;;;4.40;3.03;;;18.70;83.40;;;21.47;60.75;100939.84;5031726;28;20694;-58
2022/09/10 03:24:48;;;;;;;4.90;3.37;;;18.70;83.60;;;21.51;60.82;100942.88;5031968;28;20197;-58
2022/09/10 03:27:17;;;;;;;5.30;3.77;;;18.70;83.50;;;21.56;60.41;100943.75;5031766;28;20223;-55
2022/09/10 03:29:44;;;;;;;4.13;3.43;;;18.80;83.40;;;21.59;60.02;100943.28;5042570;28;20760;-57
2022/09/10 03:32:11;;;;;;;3.93;3.53;;;18.80;83.30;;;21.63;60.06;100940.13;5050014;28;20631;-59
2022/09/10 03:34:38;;;;;;;4.57;3.40;;;18.80;83.10;;;21.68;59.96;100945.56;5032765;28;20264;-60
2022/09/10 03:37:07;;;;;;;4.70;3.27;;;18.90;83.20;;;21.71;59.85;100945.88;5031101;28;20237;-58
2022/09/10 03:39:34;;;;;;;4.43;3.63;;;18.90;83.30;;;21.77;60.11;100946.78;5040279;28;20666;-59
2022/09/10 03:42:04;;;;;;;6.33;3.90;;;18.90;83.00;;;21.79;59.46;100952.72;5051060;28;20220;-58
2022/09/10 03:44:32;;;;;;;4.80;3.83;;;19.00;82.90;;;21.81;59.83;100950.59;5050622;28;20190;-59
2022/09/10 03:46:59;;;;;;;5.77;4.17;;;19.00;82.70;;;21.81;59.83;100956.78;5051167;28;20267;-58
2022/09/10 03:49:27;;;;;;;5.30;3.90;;;19.00;82.50;;;21.80;59.63;100955.16;5050481;28;20272;-60
2022/09/10 03:51:55;;;;;;;5.07;3.70;;;19.00;82.30;;;21.81;59.86;100950.59;5050926;28;20351;-58
2022/09/10 03:54:23;;;;;;;6.60;4.63;;;19.10;82.50;;;21.83;59.53;100953.84;5032658;28;20268;-60
2022/09/10 03:56:50;;;;;;;5.43;4.27;;;19.00;82.50;;;21.87;59.78;100949.69;5031472;28;20186;-59
2022/09/10 03:59:18;;;;;;;5.07;4.53;;;19.00;82.40;;;21.89;59.58;100953.75;5037983;28;20255;-57
2022/09/10 04:01:46;;;;;;;5.23;4.73;;;19.10;82.30;;;21.90;59.10;100957.22;5050410;28;20244;-57
2022/09/10 04:04:13;;;;;;;6.27;5.53;;;19.10;81.80;;;21.83;58.53;100948.50;5034002;28;20220;-57
2022/09/10 04:06:42;;;;;;;4.80;4.30;;;19.10;81.00;;;21.70;59.07;100949.66;5031501;28;20214;-57
2022/09/10 04:09:10;;;;;;;8.27;4.80;;;19.10;81.80;;;21.65;59.24;100951.41;5030105;28;20194;-63
2022/09/10 04:11:39;;;;;;;6.10;5.20;;;19.00;81.10;;;21.61;59.13;100955.63;5030672;28;20245;-58
2022/09/10 04:14:06;;;;;;;5.73;5.07;;;19.00;81.50;;;21.59;59.76;100954.00;5047189;28;20194;-58
2022/09/10 04:16:34;;;;;;;5.43;4.90;;;18.90;81.60;;;21.58;59.84;100959.59;5051545;28;20570;-60
2022/09/10 04:19:02;;;;;;;8.07;5.50;;;18.90;81.80;;;21.58;59.84;100957.72;5050198;28;20254;-58
2022/09/10 04:21:30;;;;;;;6.33;5.53;;;18.90;82.90;;;21.60;59.86;100968.22;5030971;28;20190;-60
2022/09/10 04:24:00;;;;;;;5.80;5.20;;;18.90;82.10;;;21.57;59.60;100956.13;5044965;28;20713;-58
2022/09/10 04:26:28;;;;;;;5.30;4.80;;;18.90;82.00;;;21.54;59.20;100955.78;5050544;28;20174;-58
2022/09/10 04:28:56;;;;;;;5.27;4.70;;;18.80;82.00;;;21.54;59.65;100964.63;5046909;28;20194;-58
2022/09/10 04:31:24;;;;;;;7.13;5.50;;;18.80;82.40;;;21.56;59.81;100959.84;5030080;28;20225;-60
2022/09/10 04:33:52;;;;;;;7.07;6.07;;;18.80;82.40;;;21.56;59.33;100965.19;5043791;28;20221;-59
2022/09/10 04:36:19;;;;;;;7.67;6.97;;;18.80;82.10;;;21.51;59.26;100969.66;5050472;28;20198;-59
2022/09/10 04:38:47;;;;;;;7.87;7.10;;;18.80;81.90;;;21.43;59.36;100970.03;5048312;28;20202;-57
2022/09/10 04:41:14;;;;;;;8.37;7.50;;;18.80;81.90;;;21.34;59.69;100969.63;5030188;28;20218;-59
2022/09/10 04:43:42;;;;;;;11.13;7.20;;;18.70;82.00;;;21.24;59.98;100969.44;5042161;28;20275;-58
2022/09/10 04:46:11;;;;;;;8.00;6.63;;;18.70;82.20;;;21.16;59.96;100969.78;5050214;28;20190;-60
2022/09/10 04:48:38;;;;;;;9.73;7.87;;;18.60;82.30;;;;;;5049445;28;20272;-59
2022/09/10 04:51:06;;;;;;;8.13;6.90;;;18.60;82.70;;;21.09;60.84;100974.47;5030198;28;20523;-56
2022/09/10 04:53:43;;;;;;;7.60;6.90;;;18.50;82.90;;;21.07;60.87;100975.75;5042028;28;20213;-57
2022/09/10 04:56:10;;;;;;;11.80;6.87;;;18.50;83.10;;;21.08;60.84;100972.88;5050282;28;20600;-58
2022/09/10 04:58:38;;;;;;;6.60;6.00;;;18.50;83.40;;;21.11;61.01;100983.06;5049865;28;20589;-60
2022/09/10 05:01:06;;;;;;;8.97;7.60;;;18.40;83.40;;;21.15;60.84;100978.91;5029916;28;20663;-59
2022/09/10 05:03:35;;;;;;;8.47;7.13;;;18.40;83.70;;;21.19;61.08;100981.88;5040716;28;20212;-57
2022/09/10 05:06:04;;;;;;;7.57;6.87;;;18.50;83.90;;;21.23;61.18;100983.03;5049605;28;20197;-55
2022/09/10 05:08:31;;;;;;;7.60;6.27;;;18.50;84.00;;;21.28;60.66;100978.59;5050169;28;20248;-54
2022/09/10 05:11:01;;;;;;;6.73;6.03;;;18.50;84.00;;;21.35;61.30;100979.28;5030304;28;20205;-57
2022/09/10 05:13:29;;;;;;;6.80;5.77;;;18.60;84.50;;;21.43;61.29;100976.22;5039317;28;20210;-57
2022/09/10 05:16:00;;;;;;;8.63;7.83;;;18.60;84.30;;;21.47;60.29;100972.00;5050010;28;20669;-59
2022/09/10 05:18:27;;;;;;;11.57;7.43;;;18.70;83.80;;;21.53;60.44;100975.59;5049982;28;20201;-58
2022/09/10 05:20:56;;;;;;;8.53;6.90;;;18.70;83.50;;;21.52;59.86;100977.44;5030764;28;20195;-56
2022/09/10 05:23:24;;;;;;;9.93;8.57;;;18.70;83.20;;;21.51;60.19;100986.53;5041084;28;20277;-58
2022/09/10 05:25:51;;;;;;;9.13;8.23;;;18.80;83.10;;;21.48;60.36;100989.72;5053448;28;20686;-58
2022/09/10 05:28:20;;;;;;;9.37;8.37;;;18.80;83.00;;;21.49;60.40;100985.13;5053693;28;20327;-58
2022/09/10 05:30:48;;;;;;;8.73;7.83;;;18.80;83.00;;;21.49;60.12;100985.13;5035478;28;20196;-57
2022/09/10 05:33:18;;;;;;;9.20;7.07;;;18.80;82.90;;;21.49;60.31;100983.28;5040619;28;20231;-58
2022/09/10 05:35:50;;;;;;;7.57;6.73;;;18.80;83.20;;;21.54;60.42;100983.38;5053373;28;20695;-57
2022/09/10 05:38:19;;;;;;;7.00;6.37;;;18.80;83.50;;;21.61;60.07;100982.44;5053261;28;20670;-56
2022/09/10 05:40:47;;;;;;;8.53;7.13;;;18.80;83.50;;;21.70;59.99;100986.34;5035656;28;20190;-54
2022/09/10 05:43:14;;;;;;;7.90;7.10;;;18.90;83.50;;;21.77;59.97;100984.31;5039771;28;20218;-57
2022/09/10 05:45:42;;;;;;;12.10;7.87;;;18.90;83.20;;;21.76;59.46;100980.00;5052321;28;20182;-57
2022/09/10 05:48:09;;;;;;;7.80;7.10;;;19.00;82.80;;;21.77;59.57;100992.34;5053285;28;20186;-57
2022/09/10 05:50:37;;;;;;;8.93;7.83;;;18.90;82.50;;;21.71;59.59;100985.28;5037970;28;20245;-57
2022/09/10 05:53:04;;;;;;;8.93;8.10;;;19.00;82.40;;;21.68;59.27;100999.97;5040098;28;20292;-56
2022/09/10 05:55:33;;;;;;;8.90;8.00;;;18.90;82.30;;;21.59;59.37;100986.16;5055095;28;20209;-58
2022/09/10 05:58:01;;;;;;;10.23;8.77;;;18.90;82.20;;;21.48;59.83;101005.78;5055696;28;20244;-58
2022/09/10 06:00:29;;;;;;;9.20;8.30;;;18.90;82.40;;;21.39;60.18;100996.50;5040283;28;20299;-57
2022/09/10 06:02:56;;;;;;;8.37;7.57;;;18.80;83.30;;;21.37;60.36;100998.59;5037745;28;20242;-57
2022/09/10 06:05:24;;;;;;;9.03;7.23;;;18.80;82.90;;;21.39;60.50;101001.88;5054353;28;20174;-59
2022/09/10 06:07:51;;;;;;;9.10;8.20;;;18.70;83.00;;;21.40;60.47;100998.13;5053711;28;20194;-58
2022/09/10 06:10:19;;;;;;;9.83;7.80;;;18.70;83.30;;;21.47;60.25;101003.31;5040433;28;20205;-57
2022/09/10 06:12:50;;;;;;;9.67;8.60;;;18.70;83.40;;;21.50;60.41;100995.63;5033824;28;20210;-57
2022/09/10 06:15:20;;;;;;;9.30;8.33;;;18.70;83.30;;;21.49;60.05;100995.84;5053101;28;20213;-56
2022/09/10 06:17:47;;;;;;;8.93;8.03;;;18.80;83.10;;;21.45;59.99;100995.53;5052899;28;20655;-58
2022/09/10 06:20:14;;;;;;;8.27;7.43;;;18.80;83.70;;;21.44;60.39;101001.94;5040813;28;20224;-56
2022/09/10 06:22:42;;;;;;;9.00;8.10;;;18.70;83.00;;;21.45;60.42;101000.91;5032979;28;20215;-57
2022/09/10 06:25:09;;;;;;;9.50;8.50;;;18.70;83.10;;;21.48;60.13;101000.44;5052482;28;20197;-58
2022/09/10 06:27:37;;;;;;;9.20;8.27;;;18.70;83.20;;;21.52;59.85;101001.56;5052501;28;20190;-59
2022/09/10 06:30:07;;;;;;;8.83;7.23;;;18.80;83.40;;;21.57;59.76;101004.34;5040684;28;20528;-58
2022/09/10 06:32:34;;;;;;;8.97;7.93;;;18.80;83.40;;;21.61;60.03;101003.88;5033607;28;20244;-57
2022/09/10 06:35:01;;;;;;;8.10;7.30;;;18.80;83.30;;;21.60;59.92;101008.41;5040124;28;20221;-58
2022/09/10 06:37:34;;;;;;;8.63;7.77;;;18.80;83.90;;;21.63;59.84;101002.56;5052194;28;20193;-57
2022/09/10 06:40:02;;;;;;;7.97;7.17;;;18.80;83.20;;;21.66;60.31;101012.78;5047541;28;20253;-56
2022/09/10 06:42:31;;;;;;;9.53;8.67;;;18.90;83.20;;;21.65;59.96;101008.50;5032036;28;20687;-58
2022/09/10 06:44:59;;;;;;;9.07;8.27;;;18.90;83.00;;;21.65;59.90;101013.88;5032173;28;20195;-58
2022/09/10 06:47:27;;;;;;;7.47;6.83;;;18.90;83.00;;;21.68;60.17;101009.88;5031252;28;20195;-58
2022/09/10 06:50:15;;;;;;;9.97;8.43;;;18.90;83.10;;;21.71;59.77;101015.56;5043071;28;20327;-59
2022/09/10 06:52:42;;;;;;;9.27;7.40;;;18.90;83.00;;;21.76;59.81;101012.97;5046006;28;20219;-58
2022/09/10 06:55:09;;;;;;;8.10;6.77;;;18.90;83.00;;;21.83;60.00;101020.88;5032218;28;20218;-59
2022/09/10 06:57:37;;;;;;;12.40;10.37;;;19.00;83.10;;;21.92;59.70;101027.47;5032007;28;20203;-58
2022/09/10 07:00:06;;;;;;;11.00;8.83;;;19.00;83.20;;;21.94;59.46;101028.88;5041233;28;20190;-60
2022/09/10 07:02:34;;;;;;;12.53;11.23;;;19.10;83.60;;;21.93;59.21;101019.22;5047597;28;20222;-58
2022/09/10 07:05:02;;;;;;;10.43;9.47;;;19.10;82.80;;;21.96;59.60;101029.47;5032040;28;20187;-59
2022/09/10 07:07:30;;;;;;;9.70;8.80;;;19.10;83.30;;;21.94;59.21;101036.13;5031941;28;20222;-60
2022/09/10 07:09:57;;;;;;;9.53;8.53;;;19.20;82.20;;;21.94;59.03;101036.91;5039870;28;20279;-57
2022/09/10 07:12:24;;;;;;;9.53;8.57;;;19.20;82.20;;;21.99;59.31;101036.19;5048454;28;20213;-61
2022/09/10 07:14:52;;;;;;;10.37;9.37;;;19.10;82.40;;;22.05;59.46;101037.91;5032963;28;20190;-60
2022/09/10 07:17:19;;;;;;;8.20;7.40;;;19.20;82.60;;;22.16;59.54;101039.69;5049834;28;20193;-59
2022/09/10 07:19:48;;;;;;;9.27;8.37;;;19.20;82.80;;;22.28;59.14;101037.75;5051726;28;20673;-59
2022/09/10 07:22:15;;;;;;;9.50;8.47;;;19.30;82.70;;;22.29;58.83;101044.75;5047442;28;20241;-61
2022/09/10 07:24:44;;;;;;;8.37;7.57;;;19.40;82.00;;;22.32;58.88;101043.47;5031678;28;20275;-57
2022/09/10 07:27:11;;;;;;;9.63;8.57;;;19.40;81.90;;;22.34;58.42;101047.53;5044917;28;20255;-60
2022/09/10 07:29:39;;;;;;;10.63;9.00;;;19.40;81.90;;;22.37;58.48;101046.22;5051408;28;20198;-58
2022/09/10 07:32:06;;;;;;;7.43;6.67;;;19.50;81.70;;;22.43;58.46;101045.22;5048606;28;20225;-59
2022/09/10 07:34:39;;;;;;;7.90;7.20;;;19.50;81.90;;;22.53;58.51;101046.22;5031319;28;20203;-59
2022/09/10 07:37:08;;;;;;;9.23;8.33;;;19.50;82.00;;;22.65;58.21;101060.38;5043934;28;20213;-57
2022/09/10 07:39:35;;;;;;;9.20;8.13;;;19.60;81.90;;;22.71;57.73;101054.03;5050607;28;20727;-58
2022/09/10 07:42:03;;;;;;;9.80;7.87;;;19.70;81.40;;;22.78;57.65;101059.22;5046435;28;20587;-58
2022/09/10 07:44:30;;;;;;;11.43;10.33;;;19.80;81.20;;;22.78;57.12;101060.03;5030514;28;20218;-58
2022/09/10 07:46:58;;;;;;;11.50;9.77;;;19.80;80.30;;;22.78;57.29;101060.03;5041921;28;20224;-57
2022/09/10 07:49:26;;;;;;;11.90;10.63;;;19.90;80.30;;;22.77;56.80;101066.44;5050858;28;20193;-58
2022/09/10 07:51:54;;;;;;;9.90;8.90;;;19.90;80.00;;;22.76;57.09;101062.16;5047740;28;20705;-59
2022/09/10 07:54:27;;;;;;;8.00;6.97;;;19.90;80.00;;;22.80;57.32;101065.97;5030984;28;20195;-58
2022/09/10 07:56:54;;;;;;;10.80;8.50;;;19.90;80.20;;;22.85;57.13;101070.59;5041101;28;20574;-59
2022/09/10 07:59:22;;;;;;;11.27;8.03;;;19.90;81.10;;;22.95;57.17;101075.28;5050420;28;20216;-58
2022/09/10 08:01:49;;;;;;;11.00;9.83;;;20.00;80.40;;;22.98;56.89;101072.13;5048585;28;20268;-59
2022/09/10 08:04:17;;;;;;;10.23;9.23;;;20.00;79.80;;;22.98;56.87;101075.63;5030728;28;20214;-58
2022/09/10 08:06:45;;;;;;;12.00;9.37;;;20.10;80.00;;;23.01;56.56;101074.31;5039252;28;20244;-59
2022/09/10 08:09:13;;;;;;;11.43;10.17;;;20.10;79.60;;;23.05;56.43;101078.13;5050181;28;20209;-58
2022/09/10 08:11:42;;;;;;;13.03;10.47;;;20.10;79.40;;;23.01;56.29;101075.09;5049611;28;20516;-59
2022/09/10 08:14:12;;;;;;;10.90;9.63;;;20.10;78.90;;;22.99;56.33;101079.91;5030293;28;20616;-60
2022/09/10 08:16:39;;;;;;;11.50;10.40;;;20.10;78.80;;;23.02;56.42;101078.59;5038541;28;20241;-58
2022/09/10 08:19:12;;;;;;;9.27;8.10;;;20.10;79.10;;;23.05;56.62;101081.63;5050386;28;20648;-59
2022/09/10 08:21:40;;;;;;;11.63;10.07;;;20.10;79.30;;;23.11;56.42;101091.34;5050086;28;20190;-60
2022/09/10 08:24:09;;;;;;;10.10;9.10;;;20.20;79.50;;;23.18;56.25;101096.53;5030610;28;20191;-58
2022/09/10 08:26:37;;;;;;;10.27;9.27;;;20.20;79.40;;;23.21;56.30;101096.06;5037961;28;20182;-59
2022/09/10 08:29:05;;;;;;;11.47;9.57;;;20.30;79.20;;;23.26;56.21;101094.25;5050436;28;20242;-58
2022/09/10 08:31:33;;;;;;;11.30;10.10;;;20.30;79.10;;;23.26;55.97;101096.13;5049826;28;20866;-58
2022/09/10 08:34:00;;;;;;;11.63;10.50;;;20.30;78.60;;;23.26;56.16;101102.31;5030925;28;20202;-58
2022/09/10 08:36:28;;;;;;;12.17;10.63;;;20.40;78.40;;;23.30;55.65;101108.00;5031015;28;20210;-58
2022/09/10 08:38:55;;;;;;;12.40;11.23;;;20.40;78.20;;;23.37;55.52;101105.97;5030270;28;20191;-57
2022/09/10 08:41:51;;;;;;;15.47;13.77;;;20.40;78.20;;;23.40;55.31;101105.47;5030206;28;20252;-58
2022/09/10 08:44:41;;;;;;;10.77;9.77;;;20.50;78.20;;;23.44;55.33;101106.59;5029830;28;20195;-60
2022/09/10 08:47:28;;;;;;;11.87;10.67;;;20.50;77.90;;;23.51;54.78;101108.03;5043182;28;20787;-57
2022/09/10 08:50:03;;;;;;;13.10;11.80;;;20.50;77.70;;;23.57;54.75;101116.97;5050137;28;20239;-58
2022/09/10 08:52:40;;;;;;;14.13;12.83;;;20.60;77.50;;;23.57;54.46;101114.28;5043882;28;20206;-58
2022/09/10 08:55:24;;;;;;;17.00;13.33;;;20.60;77.00;;;23.60;54.31;101121.84;5030049;28;20240;-58
2022/09/10 08:57:58;;;;;;;10.63;9.50;;;20.70;76.80;;;23.70;54.78;101121.97;5051336;28;20243;-59
2022/09/10 09:00:33;;;;;;;13.83;12.33;;;20.70;76.90;;;23.86;53.90;101118.41;5053457;28;20600;-58
2022/09/10 09:03:11;;;;;;;12.27;10.80;;;20.80;76.70;;;24.10;53.64;101119.72;5042794;28;20221;-60
2022/09/10 09:05:45;;;;;;;14.57;11.43;;;20.90;76.70;;;24.33;52.72;101121.31;5033569;28;20200;-58
2022/09/10 09:08:18;;;;;;;13.33;11.63;;;21.00;75.70;;;24.44;52.35;101122.22;5053219;28;20186;-58
2022/09/10 09:10:49;;;;;;;13.13;11.73;;;21.10;74.80;;;24.45;51.59;101123.81;5053357;28;20220;-57
2022/09/10 09:14:01;;;;;;;11.30;10.20;;;21.30;74.20;;;24.48;51.83;101121.44;5041574;28;20252;-62
2022/09/10 09:16:58;;;;;;;10.03;9.07;;;21.40;74.70;;;24.67;52.50;101119.16;5038879;28;20621;-57
2022/09/10 09:19:33;;;;;;;11.33;10.23;;;21.50;74.90;;;24.86;51.36;101125.78;5053691;28;20258;-59
2022/09/10 09:22:16;;;;;;;10.03;9.13;;;21.60;74.00;;;25.00;51.57;101121.56;5051846;28;20209;-57
2022/09/10 09:24:53;;;;;;;11.70;10.70;;;21.70;74.70;;;25.09;51.17;101125.41;5033443;28;20191;-58
2022/09/10 09:27:21;;;;;;;12.00;10.90;;;21.80;73.20;;;25.18;51.00;101129.22;5046116;28;20198;-59
2022/09/10 09:29:56;;;;;;;10.67;9.70;;;21.90;72.90;;;25.20;50.72;101127.06;5053717;28;20186;-58
2022/09/10 09:32:27;;;;;;;10.20;9.20;;;21.90;72.60;;;25.18;50.81;101131.09;5052947;28;20810;-55
2022/09/10 09:35:08;;;;;;;11.70;10.70;;;22.00;72.30;;;25.04;50.18;101132.63;5047855;28;20206;-56
2022/09/10 09:37:40;;;;;;;11.67;10.50;;;22.00;71.20;;;24.85;50.26;101130.38;5033386;28;20214;-58
2022/09/10 09:40:20;;;;;;;11.50;10.40;;;21.90;71.00;;;24.67;50.59;101136.13;5051678;28;20186;-57
2022/09/10 09:42:57;;;;;;;10.27;9.37;;;21.90;71.00;;;24.61;51.01;101128.25;5053108;28;20221;-59
2022/09/10 09:45:36;;;;;;;11.13;10.07;;;21.80;71.50;;;24.60;51.17;101142.81;5053067;28;20181;-57
2022/09/10 09:48:10;;;;;;;13.20;11.90;;;21.70;71.60;;;24.56;50.53;101141.66;5051513;28;20757;-62
2022/09/10 09:50:42;;;;;;;12.77;11.40;;;21.70;70.80;;;24.51;50.78;101136.28;5035305;28;20197;-59
2022/09/10 09:53:18;;;;;;;12.93;11.73;;;21.60;71.20;;;24.38;51.09;101136.69;5044744;28;20784;-59
2022/09/10 09:55:52;;;;;;;16.43;13.67;;;21.60;71.00;;;24.20;51.06;101138.66;5051703;28;20193;-60
2022/09/10 09:58:29;;;;;;;14.60;12.93;;;21.50;71.40;;;24.07;51.76;101139.09;5048245;28;20221;-60
2022/09/10 10:01:18;;;;;;;13.00;11.80;;;21.40;71.90;;;24.02;51.90;101132.81;5052452;28;20202;-59
2022/09/10 10:03:52;;;;;;;14.87;13.20;;;21.40;72.30;;;24.05;52.54;101135.81;5052224;28;20988;-58
2022/09/10 10:06:24;;;;;;;13.27;12.07;;;21.40;72.60;;;24.10;52.45;101138.56;5051110;28;20189;-59
2022/09/10 10:08:58;;;;;;;15.13;13.50;;;21.40;73.00;;;24.17;51.97;101133.00;5038913;28;20191;-61
2022/09/10 10:11:50;;;;;;;13.60;12.33;;;21.40;72.90;;;24.28;51.83;101133.88;5032229;28;20186;-59
2022/09/10 10:14:38;;;;;;;15.93;14.03;;;21.40;72.70;;;24.39;51.32;101135.63;5040075;28;20194;-60
2022/09/10 10:17:37;;;;;;;15.20;13.87;;;21.40;72.30;;;24.46;51.38;101131.63;5051450;28;20245;-58
2022/09/10 10:20:15;;;;;;;15.33;13.73;;;21.50;72.00;;;24.70;50.54;101132.09;4988656;28;20676;-60
2022/09/10 10:22:44;;;;;;;13.17;11.87;;;21.60;72.10;;;24.93;50.50;101126.38;5024470;28;20230;-58
2022/09/10 10:25:44;;;;;;;16.10;14.50;;;21.70;72.20;;;25.16;49.93;101128.66;5033556;28;20277;-59
2022/09/10 10:28:19;;;;;;;12.53;11.27;;;21.90;72.20;;;25.34;48.89;101128.22;5009388;28;20196;-58
2022/09/10 10:30:52;;;;;;;12.60;11.40;;;22.00;70.30;;;25.45;48.44;101129.13;5028331;28;20221;-59